YMA56A YPPH-YGEL
Flight info
| Callsign | YMA56A |
|---|---|
| Flight time | 0h 58m |
| Altitude | 30000 |
| Route | PH Y15 AVNEX Q20 ONGAR W14 GEL |
| Aircraft | A20N/M-SDE2E3FGHIRWXY/LB1 |
Departure
| Time | 2026-04-22 08:39 |
|---|---|
| Airport | Perth International Airport (YPPH) |
Arrival
| Time | 2026-04-22 09:37 |
|---|---|
| Airport | Geraldton Airport (YGEL) |
| Time | Latitude | Longitude | Altitude | Speed | Heading |
|---|---|---|---|---|---|
| 2026-04-22 08:35 | -31.94261 | 115.96887 | 81 ft | 0 kts | 192° |
| 2026-04-22 08:36 | -31.94283 | 115.96882 | 81 ft | 13 kts | 192° |
| 2026-04-22 08:36 | -31.94323 | 115.96864 | 81 ft | 3 kts | 230° |
| 2026-04-22 08:36 | -31.94327 | 115.96857 | 81 ft | 3 kts | 231° |
| 2026-04-22 08:36 | -31.94291 | 115.96775 | 81 ft | 21 kts | 11° |
| 2026-04-22 08:37 | -31.94133 | 115.96822 | 81 ft | 36 kts | 14° |
| 2026-04-22 08:37 | -31.93698 | 115.96926 | 81 ft | 79 kts | 14° |
| 2026-04-22 08:37 | -31.93195 | 115.97087 | 81 ft | 71 kts | 15° |
| 2026-04-22 08:37 | -31.92978 | 115.97304 | 81 ft | 36 kts | 105° |
| 2026-04-22 08:38 | -31.93038 | 115.97585 | 81 ft | 34 kts | 102° |
| 2026-04-22 08:38 | -31.93114 | 115.97787 | 82 ft | 15 kts | 195° |
| 2026-04-22 08:38 | -31.93182 | 115.97715 | 82 ft | 14 kts | 236° |
| 2026-04-22 08:38 | -31.93309 | 115.97472 | 81 ft | 79 kts | 239° |
| 2026-04-22 08:39 | -31.93735 | 115.96626 | 198 ft | 149 kts | 238° |
| 2026-04-22 08:39 | -31.94345 | 115.95637 | 1140 ft | 151 kts | 226° |
| 2026-04-22 08:39 | -31.95018 | 115.94769 | 2022 ft | 162 kts | 233° |
| 2026-04-22 08:39 | -31.95641 | 115.93576 | 2805 ft | 182 kts | 244° |
| 2026-04-22 08:40 | -31.96244 | 115.92171 | 3608 ft | 206 kts | 245° |
| 2026-04-22 08:40 | -31.96941 | 115.90633 | 4538 ft | 226 kts | 245° |
| 2026-04-22 08:40 | -31.97748 | 115.88955 | 5495 ft | 246 kts | 245° |
| 2026-04-22 08:40 | -31.98641 | 115.87168 | 6438 ft | 266 kts | 245° |
| 2026-04-22 08:41 | -31.99616 | 115.85245 | 7438 ft | 283 kts | 245° |
| 2026-04-22 08:41 | -32.00598 | 115.83237 | 8723 ft | 284 kts | 252° |
| 2026-04-22 08:41 | -32.01055 | 115.81082 | 10064 ft | 272 kts | 272° |
| 2026-04-22 08:41 | -32.00921 | 115.78891 | 11253 ft | 272 kts | 283° |
| 2026-04-22 08:42 | -32.00617 | 115.76646 | 12067 ft | 290 kts | 283° |
| 2026-04-22 08:42 | -32.00279 | 115.74211 | 12792 ft | 310 kts | 283° |
| 2026-04-22 08:42 | -31.99924 | 115.71570 | 13569 ft | 325 kts | 283° |
| 2026-04-22 08:42 | -31.99564 | 115.68849 | 14621 ft | 330 kts | 283° |
| 2026-04-22 08:43 | -31.99123 | 115.66204 | 15674 ft | 334 kts | 284° |
| 2026-04-22 08:43 | -31.98633 | 115.63475 | 16692 ft | 339 kts | 285° |
| 2026-04-22 08:43 | -31.98141 | 115.60759 | 17615 ft | 344 kts | 284° |
| 2026-04-22 08:43 | -31.97642 | 115.57997 | 18523 ft | 349 kts | 284° |
| 2026-04-22 08:44 | -31.97100 | 115.55130 | 19434 ft | 353 kts | 287° |
| 2026-04-22 08:44 | -31.96354 | 115.52313 | 20304 ft | 356 kts | 292° |
| 2026-04-22 08:44 | -31.95362 | 115.49564 | 21161 ft | 359 kts | 297° |
| 2026-04-22 08:44 | -31.94199 | 115.46864 | 21998 ft | 363 kts | 298° |
| 2026-04-22 08:45 | -31.93004 | 115.44228 | 22785 ft | 366 kts | 302° |
| 2026-04-22 08:45 | -31.91358 | 115.41946 | 23525 ft | 372 kts | 316° |
| 2026-04-22 08:45 | -31.89134 | 115.40233 | 24281 ft | 380 kts | 330° |
| 2026-04-22 08:45 | -31.86539 | 115.39138 | 24917 ft | 390 kts | 337° |
| 2026-04-22 08:46 | -31.83868 | 115.38126 | 25554 ft | 395 kts | 337° |
| 2026-04-22 08:46 | -31.81196 | 115.37126 | 26218 ft | 398 kts | 337° |
| 2026-04-22 08:46 | -31.78568 | 115.36148 | 27013 ft | 397 kts | 337° |
| 2026-04-22 08:46 | -31.75930 | 115.35231 | 27908 ft | 395 kts | 341° |
| 2026-04-22 08:47 | -31.73223 | 115.34697 | 28768 ft | 398 kts | 348° |
| 2026-04-22 08:47 | -31.70366 | 115.34606 | 29480 ft | 405 kts | 356° |
| 2026-04-22 08:47 | -31.67527 | 115.35014 | 29881 ft | 415 kts | 4° |
| 2026-04-22 08:47 | -31.64671 | 115.35954 | 29964 ft | 426 kts | 12° |
| 2026-04-22 08:48 | -31.61883 | 115.37426 | 29971 ft | 434 kts | 19° |
| 2026-04-22 08:48 | -31.56452 | 115.40720 | 29969 ft | 435 kts | 20° |
| 2026-04-22 08:49 | -31.50996 | 115.44060 | 29967 ft | 436 kts | 20° |
| 2026-04-22 08:49 | -31.45526 | 115.47387 | 29970 ft | 435 kts | 20° |
| 2026-04-22 08:50 | -31.40090 | 115.50683 | 29970 ft | 434 kts | 20° |
| 2026-04-22 08:50 | -31.34684 | 115.53956 | 29969 ft | 434 kts | 20° |
| 2026-04-22 08:51 | -31.29248 | 115.57241 | 29970 ft | 434 kts | 20° |
| 2026-04-22 08:51 | -31.23845 | 115.60495 | 29969 ft | 436 kts | 20° |
| 2026-04-22 08:52 | -31.18441 | 115.63739 | 29967 ft | 435 kts | 20° |
| 2026-04-22 08:52 | -31.13050 | 115.66977 | 29965 ft | 433 kts | 19° |
| 2026-04-22 08:53 | -31.07628 | 115.70231 | 29966 ft | 435 kts | 19° |
| 2026-04-22 08:53 | -31.02192 | 115.73490 | 29963 ft | 435 kts | 19° |
| 2026-04-22 08:54 | -30.96769 | 115.76739 | 29958 ft | 435 kts | 20° |
| 2026-04-22 08:54 | -30.91350 | 115.79983 | 29963 ft | 435 kts | 20° |
| 2026-04-22 08:55 | -30.85737 | 115.83079 | 29955 ft | 425 kts | 10° |
| 2026-04-22 08:55 | -30.82816 | 115.83734 | 29959 ft | 414 kts | 358° |
| 2026-04-22 08:55 | -30.79958 | 115.83657 | 29961 ft | 405 kts | 347° |
| 2026-04-22 08:55 | -30.77141 | 115.82891 | 29963 ft | 398 kts | 336° |
| 2026-04-22 08:56 | -30.74608 | 115.81538 | 29966 ft | 394 kts | 328° |
| 2026-04-22 08:56 | -30.69724 | 115.78306 | 29964 ft | 395 kts | 327° |
| 2026-04-22 08:57 | -30.64876 | 115.75066 | 29965 ft | 395 kts | 327° |
| 2026-04-22 08:57 | -30.60103 | 115.71876 | 29968 ft | 394 kts | 327° |
| 2026-04-22 08:58 | -30.55286 | 115.68661 | 29970 ft | 394 kts | 327° |
| 2026-04-22 08:58 | -30.50521 | 115.65486 | 29972 ft | 394 kts | 327° |
| 2026-04-22 08:59 | -30.49106 | 115.64544 | 29972 ft | 394 kts | 327° |
| 2026-04-22 09:10 | -30.45454 | 115.62115 | 29970 ft | 394 kts | 327° |
| 2026-04-22 09:10 | -30.40594 | 115.58883 | 29972 ft | 395 kts | 327° |
| 2026-04-22 09:11 | -30.35769 | 115.55675 | 29971 ft | 394 kts | 327° |
| 2026-04-22 09:11 | -30.30982 | 115.52499 | 29971 ft | 394 kts | 327° |
| 2026-04-22 09:12 | -30.26207 | 115.49335 | 29978 ft | 395 kts | 327° |
| 2026-04-22 09:12 | -30.21423 | 115.46168 | 29983 ft | 394 kts | 327° |
| 2026-04-22 09:13 | -30.16644 | 115.43008 | 29987 ft | 394 kts | 327° |
| 2026-04-22 09:13 | -30.11855 | 115.39843 | 29986 ft | 394 kts | 327° |
| 2026-04-22 09:14 | -30.07055 | 115.36676 | 29978 ft | 394 kts | 327° |
| 2026-04-22 09:14 | -30.02273 | 115.33524 | 29969 ft | 393 kts | 328° |
| 2026-04-22 09:15 | -29.97501 | 115.30385 | 29969 ft | 394 kts | 328° |
| 2026-04-22 09:15 | -29.92638 | 115.27187 | 29972 ft | 394 kts | 328° |
| 2026-04-22 09:16 | -29.87863 | 115.24050 | 29968 ft | 393 kts | 328° |
| 2026-04-22 09:16 | -29.83087 | 115.20917 | 29974 ft | 393 kts | 328° |
| 2026-04-22 09:17 | -29.78323 | 115.17794 | 29970 ft | 393 kts | 328° |
| 2026-04-22 09:17 | -29.73569 | 115.14683 | 29970 ft | 394 kts | 327° |
| 2026-04-22 09:18 | -29.68800 | 115.11563 | 29873 ft | 394 kts | 328° |
| 2026-04-22 09:18 | -29.66396 | 115.09991 | 29232 ft | 392 kts | 328° |
| 2026-04-22 09:18 | -29.64044 | 115.08459 | 28469 ft | 389 kts | 328° |
| 2026-04-22 09:18 | -29.61701 | 115.06929 | 27631 ft | 389 kts | 328° |
| 2026-04-22 09:19 | -29.59355 | 115.05400 | 26721 ft | 390 kts | 327° |
| 2026-04-22 09:19 | -29.56998 | 115.03863 | 25766 ft | 391 kts | 327° |
| 2026-04-22 09:19 | -29.54640 | 115.02327 | 25082 ft | 386 kts | 327° |
| 2026-04-22 09:19 | -29.52326 | 115.00821 | 24448 ft | 380 kts | 327° |
| 2026-04-22 09:20 | -29.50045 | 114.99336 | 23811 ft | 376 kts | 327° |
| 2026-04-22 09:20 | -29.47778 | 114.97862 | 23185 ft | 372 kts | 327° |
| 2026-04-22 09:20 | -29.45549 | 114.96413 | 22573 ft | 368 kts | 327° |
| 2026-04-22 09:20 | -29.43328 | 114.94968 | 21948 ft | 364 kts | 327° |
| 2026-04-22 09:21 | -29.41143 | 114.93547 | 21336 ft | 361 kts | 327° |
| 2026-04-22 09:21 | -29.38911 | 114.92098 | 20698 ft | 358 kts | 328° |
| 2026-04-22 09:21 | -29.36735 | 114.90684 | 20056 ft | 356 kts | 328° |
| 2026-04-22 09:21 | -29.34595 | 114.89296 | 19440 ft | 353 kts | 328° |
| 2026-04-22 09:22 | -29.32468 | 114.87917 | 18826 ft | 350 kts | 328° |
| 2026-04-22 09:22 | -29.30360 | 114.86553 | 18221 ft | 347 kts | 328° |
| 2026-04-22 09:22 | -29.28273 | 114.85200 | 17624 ft | 345 kts | 328° |
| 2026-04-22 09:22 | -29.26197 | 114.83857 | 17028 ft | 342 kts | 328° |
| 2026-04-22 09:23 | -29.24140 | 114.82525 | 16434 ft | 339 kts | 328° |
| 2026-04-22 09:23 | -29.22080 | 114.81243 | 15844 ft | 338 kts | 333° |
| 2026-04-22 09:23 | -29.19846 | 114.80428 | 15246 ft | 340 kts | 345° |
| 2026-04-22 09:23 | -29.17451 | 114.80189 | 14625 ft | 343 kts | 357° |
| 2026-04-22 09:24 | -29.15001 | 114.80404 | 13962 ft | 343 kts | 1° |
| 2026-04-22 09:24 | -29.12624 | 114.80679 | 13301 ft | 343 kts | 1° |
| 2026-04-22 09:24 | -29.10202 | 114.80967 | 12634 ft | 342 kts | 2° |
| 2026-04-22 09:24 | -29.07804 | 114.81253 | 11997 ft | 339 kts | 1° |
| 2026-04-22 09:25 | -29.05454 | 114.81532 | 11464 ft | 332 kts | 1° |
| 2026-04-22 09:25 | -29.03185 | 114.81802 | 11091 ft | 320 kts | 1° |
| 2026-04-22 09:25 | -29.01023 | 114.82059 | 10835 ft | 305 kts | 1° |
| 2026-04-22 09:25 | -28.98935 | 114.82305 | 10571 ft | 293 kts | 1° |
| 2026-04-22 09:26 | -28.96916 | 114.82542 | 10328 ft | 280 kts | 1° |
| 2026-04-22 09:26 | -28.94995 | 114.82767 | 10115 ft | 269 kts | 1° |
| 2026-04-22 09:26 | -28.93151 | 114.82982 | 9817 ft | 262 kts | 1° |
| 2026-04-22 09:26 | -28.91324 | 114.83191 | 9389 ft | 261 kts | 1° |
| 2026-04-22 09:27 | -28.89524 | 114.83398 | 8983 ft | 260 kts | 1° |
| 2026-04-22 09:27 | -28.87696 | 114.83607 | 8571 ft | 258 kts | 1° |
| 2026-04-22 09:27 | -28.85900 | 114.83815 | 8166 ft | 257 kts | 1° |
| 2026-04-22 09:27 | -28.84127 | 114.84020 | 7771 ft | 255 kts | 2° |
| 2026-04-22 09:28 | -28.82365 | 114.84224 | 7376 ft | 253 kts | 2° |
| 2026-04-22 09:28 | -28.80614 | 114.84428 | 6982 ft | 251 kts | 2° |
| 2026-04-22 09:28 | -28.78884 | 114.84629 | 6603 ft | 249 kts | 2° |
| 2026-04-22 09:28 | -28.77164 | 114.84829 | 6217 ft | 247 kts | 2° |
| 2026-04-22 09:29 | -28.75458 | 114.85026 | 5826 ft | 246 kts | 2° |
| 2026-04-22 09:29 | -28.73749 | 114.85225 | 5436 ft | 246 kts | 3° |
| 2026-04-22 09:29 | -28.72048 | 114.85421 | 5040 ft | 246 kts | 3° |
| 2026-04-22 09:29 | -28.70348 | 114.85619 | 4649 ft | 246 kts | 3° |
| 2026-04-22 09:30 | -28.68619 | 114.85819 | 4315 ft | 243 kts | 4° |
| 2026-04-22 09:30 | -28.66942 | 114.86015 | 4160 ft | 232 kts | 4° |
| 2026-04-22 09:30 | -28.65370 | 114.86198 | 4045 ft | 221 kts | 3° |
| 2026-04-22 09:30 | -28.63896 | 114.86049 | 3908 ft | 208 kts | 335° |
| 2026-04-22 09:31 | -28.62785 | 114.85049 | 3764 ft | 201 kts | 306° |
| 2026-04-22 09:31 | -28.62289 | 114.83552 | 3476 ft | 206 kts | 276° |
| 2026-04-22 09:31 | -28.62304 | 114.81902 | 3231 ft | 205 kts | 269° |
| 2026-04-22 09:31 | -28.62365 | 114.80322 | 3196 ft | 189 kts | 269° |
| 2026-04-22 09:32 | -28.62419 | 114.78915 | 3161 ft | 170 kts | 269° |
| 2026-04-22 09:32 | -28.62574 | 114.77600 | 3165 ft | 165 kts | 249° |
| 2026-04-22 09:32 | -28.63333 | 114.76727 | 3070 ft | 153 kts | 208° |
| 2026-04-22 09:32 | -28.64289 | 114.76347 | 2955 ft | 138 kts | 200° |
| 2026-04-22 09:33 | -28.65200 | 114.76055 | 2890 ft | 134 kts | 199° |
| 2026-04-22 09:33 | -28.66096 | 114.75755 | 2722 ft | 130 kts | 200° |
| 2026-04-22 09:33 | -28.66948 | 114.75452 | 2522 ft | 125 kts | 201° |
| 2026-04-22 09:33 | -28.67782 | 114.75140 | 2352 ft | 123 kts | 201° |
| 2026-04-22 09:34 | -28.68597 | 114.74830 | 2192 ft | 122 kts | 201° |
| 2026-04-22 09:34 | -28.69394 | 114.74526 | 2031 ft | 120 kts | 202° |
| 2026-04-22 09:34 | -28.70184 | 114.74224 | 1881 ft | 119 kts | 202° |
| 2026-04-22 09:35 | -28.71751 | 114.73626 | 1566 ft | 118 kts | 201° |
| 2026-04-22 09:35 | -28.72538 | 114.73327 | 1411 ft | 118 kts | 201° |
| 2026-04-22 09:35 | -28.73319 | 114.73031 | 1259 ft | 118 kts | 201° |
| 2026-04-22 09:35 | -28.74095 | 114.72738 | 1104 ft | 117 kts | 201° |
| 2026-04-22 09:36 | -28.74869 | 114.72445 | 944 ft | 117 kts | 201° |
| 2026-04-22 09:36 | -28.75642 | 114.72153 | 789 ft | 117 kts | 201° |
| 2026-04-22 09:36 | -28.76412 | 114.71862 | 636 ft | 117 kts | 201° |
| 2026-04-22 09:36 | -28.77183 | 114.71571 | 482 ft | 117 kts | 201° |
| 2026-04-22 09:37 | -28.77950 | 114.71282 | 327 ft | 116 kts | 201° |
| 2026-04-22 09:37 | -28.78710 | 114.70997 | 180 ft | 114 kts | 201° |
| 2026-04-22 09:37 | -28.79427 | 114.70718 | 128 ft | 86 kts | 204° |
| 2026-04-22 09:37 | -28.79725 | 114.70625 | 125 ft | 17 kts | 184° |
| 2026-04-22 09:38 | -28.79672 | 114.70627 | 125 ft | 40 kts | 14° |
| 2026-04-22 09:38 | -28.79291 | 114.70762 | 130 ft | 57 kts | 18° |
| 2026-04-22 09:38 | -28.78957 | 114.70887 | 133 ft | 48 kts | 19° |
| 2026-04-22 09:38 | -28.78769 | 114.70970 | 134 ft | 4 kts | 147° |
| 2026-04-22 09:39 | -28.78784 | 114.70967 | 134 ft | 0 kts | 193° |